createdAt,value
2022-10-20T00:00:54.797Z,9.11
2022-10-20T00:03:24.380Z,9.43
2022-10-20T00:05:52.554Z,9.57
2022-10-20T00:08:20.270Z,9.48
2022-10-20T00:10:54.469Z,9.14
2022-10-20T00:13:22.123Z,9.37
2022-10-20T00:15:50.334Z,8.81
2022-10-20T00:18:18.105Z,9.05
2022-10-20T00:20:47.167Z,9.14
2022-10-20T00:23:15.136Z,9.21
2022-10-20T00:25:42.722Z,9.35
2022-10-20T00:28:10.453Z,9.40
2022-10-20T00:30:38.584Z,9.33
2022-10-20T00:33:06.931Z,9.25
2022-10-20T00:35:38.431Z,9.46
2022-10-20T00:38:07.386Z,9.18
2022-10-20T00:40:34.964Z,9.25
2022-10-20T00:43:02.475Z,9.23
2022-10-20T00:45:30.348Z,9.10
2022-10-20T00:48:01.433Z,9.06
2022-10-20T00:50:31.885Z,9.08
2022-10-20T00:53:01.207Z,9.20
2022-10-20T00:55:33.366Z,9.08
2022-10-20T00:58:02.325Z,8.91
2022-10-20T01:00:30.371Z,8.95
2022-10-20T01:03:00.542Z,9.36
2022-10-20T01:05:29.080Z,9.39
2022-10-20T01:07:56.674Z,9.31
2022-10-20T01:10:26.549Z,8.79
2022-10-20T01:13:03.972Z,8.91
2022-10-20T01:15:35.881Z,8.85
2022-10-20T01:18:09.635Z,8.73
2022-10-20T01:21:04.847Z,9.18
2022-10-20T01:24:12.657Z,9.07
2022-10-20T01:27:27.787Z,8.46
2022-10-20T01:30:02.557Z,8.46
2022-10-20T01:32:38.404Z,8.42
2022-10-20T01:35:12.724Z,8.68
2022-10-20T01:37:49.298Z,8.74
2022-10-20T01:40:27.758Z,8.78
2022-10-20T01:42:59.392Z,8.96
2022-10-20T01:45:32.033Z,8.94
2022-10-20T01:48:02.876Z,8.59
2022-10-20T01:50:30.855Z,8.74
2022-10-20T01:52:59.173Z,8.87
2022-10-20T01:55:27.342Z,8.67
2022-10-20T01:58:12.281Z,8.86
2022-10-20T02:00:42.600Z,8.50
2022-10-20T02:03:23.315Z,8.72
2022-10-20T02:06:04.476Z,8.67
2022-10-20T02:08:39.271Z,8.73
2022-10-20T02:11:09.651Z,8.42
2022-10-20T02:13:39.530Z,8.29
2022-10-20T02:16:14.477Z,8.38
2022-10-20T02:18:44.865Z,8.12
2022-10-20T02:21:12.977Z,8.21
2022-10-20T02:23:45.101Z,8.07
2022-10-20T02:26:16.243Z,7.78
2022-10-20T02:28:47.886Z,8.19
2022-10-20T02:31:17.756Z,7.90
2022-10-20T02:33:47.095Z,7.92
2022-10-20T02:36:22.585Z,7.98
2022-10-20T02:38:50.115Z,8.11
2022-10-20T02:41:17.612Z,8.09
2022-10-20T02:43:45.113Z,7.89
2022-10-20T02:46:12.637Z,8.10
2022-10-20T02:48:41.559Z,7.87
2022-10-20T02:51:09.097Z,7.70
2022-10-20T02:53:36.615Z,7.74
2022-10-20T02:56:04.206Z,7.84
2022-10-20T02:58:31.719Z,7.99
2022-10-20T03:00:59.321Z,8.06
2022-10-20T03:03:27.001Z,8.32
2022-10-20T03:05:55.883Z,8.33
2022-10-20T03:08:23.407Z,8.07
2022-10-20T03:10:50.943Z,8.17
2022-10-20T03:13:18.502Z,7.90
2022-10-20T03:15:46.075Z,7.35
2022-10-20T03:18:13.579Z,7.22
2022-10-20T03:20:41.142Z,7.13
2022-10-20T03:23:10.040Z,6.93
2022-10-20T03:25:37.545Z,6.92
2022-10-20T03:28:05.352Z,6.70
2022-10-20T03:30:32.863Z,6.89
2022-10-20T03:33:00.396Z,6.67
2022-10-20T03:35:27.908Z,6.89
2022-10-20T03:37:55.397Z,7.07
2022-10-20T03:40:24.344Z,7.17
2022-10-20T03:42:52.051Z,7.44
2022-10-20T03:45:19.577Z,7.96
2022-10-20T03:47:47.147Z,7.81
2022-10-20T03:50:14.699Z,7.49
2022-10-20T03:52:42.253Z,7.23
2022-10-20T03:55:10.225Z,7.23
2022-10-20T03:57:39.199Z,7.35
2022-10-20T04:00:07.969Z,7.11
2022-10-20T04:02:39.111Z,7.35
2022-10-20T04:05:08.167Z,7.25
2022-10-20T04:07:35.712Z,7.43
2022-10-20T04:10:03.513Z,7.80
2022-10-20T04:12:31.663Z,7.86
2022-10-20T04:15:00.555Z,8.01
2022-10-20T04:17:28.342Z,7.85
2022-10-20T04:19:55.956Z,7.78
2022-10-20T04:22:23.508Z,8.02
2022-10-20T04:24:51.042Z,8.00
2022-10-20T04:27:18.593Z,8.09
2022-10-20T04:29:47.611Z,8.10
2022-10-20T04:32:16.472Z,8.12
2022-10-20T04:34:43.983Z,8.16
2022-10-20T04:37:11.633Z,8.25
2022-10-20T04:39:39.176Z,8.18
2022-10-20T04:42:06.732Z,7.78
2022-10-20T04:44:34.305Z,8.00
2022-10-20T04:47:01.860Z,7.81
2022-10-20T04:49:30.736Z,7.93
2022-10-20T04:52:00.971Z,8.04
2022-10-20T04:54:29.051Z,7.87
2022-10-20T04:56:56.944Z,7.67
2022-10-20T04:59:24.724Z,7.87
2022-10-20T05:01:52.349Z,7.78
2022-10-20T05:04:21.731Z,7.64
2022-10-20T05:06:50.716Z,7.63
2022-10-20T05:09:18.288Z,7.65
2022-10-20T05:11:46.315Z,7.73
2022-10-20T05:14:14.022Z,7.74
2022-10-20T05:16:41.549Z,7.46
2022-10-20T05:19:09.058Z,7.81
2022-10-20T05:21:36.649Z,7.77
2022-10-20T05:24:06.887Z,7.19
2022-10-20T05:26:37.390Z,7.57
2022-10-20T05:29:07.383Z,7.65
2022-10-20T05:31:38.032Z,7.02
2022-10-20T05:34:05.544Z,7.17
2022-10-20T05:36:33.097Z,7.45
2022-10-20T05:39:00.820Z,7.48
2022-10-20T05:41:34.774Z,7.04
2022-10-20T05:44:08.521Z,7.52
2022-10-20T05:46:41.043Z,7.57
2022-10-20T05:49:11.991Z,7.41
2022-10-20T05:51:39.509Z,7.44
2022-10-20T05:54:07.022Z,6.80
2022-10-20T05:56:35.876Z,6.88
2022-10-20T05:59:03.480Z,7.41
2022-10-20T06:01:40.095Z,7.52
2022-10-20T06:04:08.903Z,7.06
2022-10-20T06:06:37.001Z,6.51
2022-10-20T06:09:07.825Z,6.33
2022-10-20T06:11:39.571Z,6.52
2022-10-20T06:14:08.230Z,6.85
2022-10-20T06:16:35.934Z,6.88
2022-10-20T06:19:03.900Z,7.31
2022-10-20T06:21:33.628Z,7.53
2022-10-20T06:24:04.072Z,7.85
2022-10-20T06:26:33.943Z,8.22
2022-10-20T06:29:05.012Z,8.47
2022-10-20T06:31:34.793Z,8.64
2022-10-20T06:34:04.935Z,8.75
2022-10-20T06:36:35.432Z,8.24
2022-10-20T06:39:04.475Z,8.40
2022-10-20T06:41:32.667Z,8.35
2022-10-20T06:44:00.304Z,8.64
2022-10-20T06:46:31.262Z,8.53
2022-10-20T06:49:01.636Z,8.67
2022-10-20T06:51:29.243Z,9.15
2022-10-20T06:53:56.814Z,8.68
2022-10-20T06:56:26.952Z,7.99
2022-10-20T06:58:56.751Z,7.81
2022-10-20T07:01:25.825Z,8.00
2022-10-20T07:03:56.466Z,7.86
2022-10-20T07:06:27.071Z,7.72
2022-10-20T07:08:56.311Z,7.85
2022-10-20T07:11:26.015Z,8.05
2022-10-20T07:13:53.936Z,8.04
2022-10-20T07:16:23.474Z,8.41
2022-10-20T07:18:51.511Z,9.30
2022-10-20T07:21:22.820Z,10.46
2022-10-20T07:23:51.484Z,11.26
2022-10-20T07:26:20.675Z,12.08
2022-10-20T07:28:55.581Z,12.90
2022-10-20T07:31:25.510Z,13.65
2022-10-20T07:34:06.815Z,14.16
2022-10-20T07:36:44.626Z,14.48
2022-10-20T07:39:13.796Z,14.59
2022-10-20T07:41:44.010Z,14.91
2022-10-20T07:44:11.655Z,15.35
2022-10-20T07:46:39.185Z,15.37
2022-10-20T07:49:24.029Z,15.86
2022-10-20T07:51:55.609Z,16.48
2022-10-20T07:54:23.418Z,16.43
2022-10-20T07:56:50.924Z,16.34
2022-10-20T07:59:18.744Z,15.43
2022-10-20T08:01:46.421Z,15.57
2022-10-20T08:04:14.059Z,15.50
2022-10-20T08:06:41.603Z,15.32
2022-10-20T08:09:10.468Z,15.54
2022-10-20T08:11:38.004Z,15.79
2022-10-20T08:14:05.606Z,15.41
2022-10-20T08:16:37.572Z,15.05
2022-10-20T08:21:46.553Z,15.08
2022-10-20T08:24:15.457Z,14.98
2022-10-20T08:26:42.995Z,15.56
2022-10-20T08:29:12.183Z,15.43
2022-10-20T08:31:40.048Z,15.30
2022-10-20T08:34:08.070Z,15.99
2022-10-20T08:36:37.126Z,16.36
2022-10-20T08:39:06.286Z,15.63
2022-10-20T08:42:02.845Z,16.05
2022-10-20T08:44:29.038Z,16.24
2022-10-20T08:46:57.072Z,16.20
2022-10-20T08:49:28.903Z,16.30
2022-10-20T08:51:56.603Z,15.43
2022-10-20T08:54:24.310Z,15.38
2022-10-20T08:56:53.708Z,15.43
2022-10-20T08:59:34.753Z,15.80
2022-10-20T09:02:04.326Z,15.86
2022-10-20T09:04:37.708Z,16.22
2022-10-20T09:07:16.598Z,16.06
2022-10-20T09:09:44.395Z,15.83
2022-10-20T09:12:15.346Z,15.66
2022-10-20T09:14:43.161Z,15.51
2022-10-20T09:17:16.821Z,16.11
2022-10-20T09:19:48.680Z,16.37
2022-10-20T09:22:17.905Z,16.30
2022-10-20T09:24:46.488Z,17.12
2022-10-20T09:27:22.453Z,17.64
2022-10-20T09:29:50.425Z,17.61
2022-10-20T09:35:20.930Z,17.10
2022-10-20T09:37:57.274Z,16.61
2022-10-20T09:40:26.270Z,16.38
2022-10-20T09:42:58.078Z,16.28
2022-10-20T09:45:29.456Z,16.41
2022-10-20T09:48:02.725Z,16.51
2022-10-20T09:50:33.041Z,17.01
2022-10-20T09:53:02.778Z,17.13
2022-10-20T09:55:32.424Z,17.01
2022-10-20T09:58:04.613Z,17.53
2022-10-20T10:00:38.359Z,17.66
2022-10-20T10:03:20.985Z,16.92
2022-10-20T10:05:52.590Z,16.92
2022-10-20T10:08:21.307Z,17.33
2022-10-20T10:11:00.093Z,17.59
2022-10-20T10:13:31.882Z,17.76
2022-10-20T10:16:02.103Z,17.46
2022-10-20T10:18:29.916Z,17.89
2022-10-20T10:21:03.703Z,18.35
2022-10-20T10:23:33.941Z,18.55
2022-10-20T10:26:03.116Z,18.43
2022-10-20T10:28:37.828Z,17.55
2022-10-20T10:31:21.695Z,17.93
2022-10-20T10:33:52.764Z,18.02
2022-10-20T10:36:33.825Z,18.58
2022-10-20T10:39:01.809Z,18.94
2022-10-20T10:41:42.075Z,18.43
2022-10-20T10:44:22.011Z,17.97
2022-10-20T10:47:01.071Z,18.13
2022-10-20T10:49:42.969Z,18.72
2022-10-20T10:52:24.292Z,18.96
2022-10-20T10:55:03.212Z,18.87
2022-10-20T10:57:33.562Z,18.46
2022-10-20T11:00:08.250Z,18.22
2022-10-20T11:03:01.061Z,18.93
2022-10-20T11:05:40.939Z,19.16
2022-10-20T11:08:20.629Z,19.23
2022-10-20T11:10:54.655Z,19.07
2022-10-20T11:13:30.522Z,19.41
2022-10-20T11:16:10.562Z,19.57
2022-10-20T11:18:59.211Z,19.28
2022-10-20T11:21:33.082Z,19.04
2022-10-20T11:24:09.610Z,18.99
2022-10-20T11:26:40.488Z,18.17
2022-10-20T11:29:15.201Z,17.80
2022-10-20T11:31:50.973Z,17.84
2022-10-20T11:34:27.119Z,18.13
2022-10-20T11:37:02.682Z,18.59
2022-10-20T11:39:38.809Z,19.49
2022-10-20T11:42:21.148Z,20.02
2022-10-20T11:44:49.498Z,20.37
2022-10-20T11:47:24.547Z,20.26
2022-10-20T11:49:53.492Z,19.81
2022-10-20T11:52:45.904Z,20.33
2022-10-20T11:55:33.599Z,20.04
2022-10-20T11:58:17.460Z,19.79
2022-10-20T12:01:01.451Z,19.59
2022-10-20T12:04:01.672Z,19.32
2022-10-20T12:06:44.253Z,19.59
2022-10-20T12:09:34.802Z,19.51
2022-10-20T12:12:06.409Z,19.63
2022-10-20T12:14:38.742Z,20.20
2022-10-20T12:17:24.535Z,20.57
2022-10-20T12:20:13.674Z,20.71
2022-10-20T12:22:43.901Z,20.02
2022-10-20T12:25:35.857Z,19.81
2022-10-20T12:28:33.550Z,20.37
2022-10-20T12:31:02.839Z,20.36
2022-10-20T12:33:42.985Z,20.58
2022-10-20T12:36:28.251Z,19.77
2022-10-20T12:39:21.267Z,20.41
2022-10-20T12:42:04.109Z,19.76
2022-10-20T12:44:41.226Z,19.66
2022-10-20T12:47:10.447Z,19.43
2022-10-20T12:49:41.699Z,19.14
2022-10-20T12:52:20.528Z,19.57
2022-10-20T12:54:56.124Z,19.71
2022-10-20T12:57:32.180Z,19.79
2022-10-20T12:59:59.715Z,19.66
2022-10-20T13:02:44.903Z,19.41
2022-10-20T13:05:44.044Z,19.36
2022-10-20T13:08:33.602Z,19.69
2022-10-20T13:11:54.725Z,19.50
2022-10-20T13:14:34.176Z,19.06
2022-10-20T13:17:16.854Z,18.72
2022-10-20T13:19:48.206Z,18.49
2022-10-20T13:22:46.433Z,18.36
2022-10-20T13:25:20.341Z,18.41
2022-10-20T13:27:51.085Z,17.80
2022-10-20T13:30:23.352Z,18.12
2022-10-20T13:33:17.990Z,18.34
2022-10-20T13:35:58.017Z,18.18
2022-10-20T13:38:34.024Z,18.52
2022-10-20T13:41:08.624Z,19.00
2022-10-20T13:43:43.356Z,18.80
2022-10-20T13:46:26.136Z,19.08
2022-10-20T13:49:05.419Z,19.23
2022-10-20T13:51:36.677Z,19.42
2022-10-20T13:54:07.901Z,19.63
2022-10-20T13:56:37.769Z,18.73
2022-10-20T13:59:19.346Z,18.64
2022-10-20T14:01:48.470Z,18.37
2022-10-20T14:04:27.139Z,18.31
2022-10-20T14:06:54.898Z,18.76
2022-10-20T14:09:24.817Z,18.77
2022-10-20T14:11:57.140Z,18.54
2022-10-20T14:14:27.921Z,18.59
2022-10-20T14:16:58.563Z,18.24
2022-10-20T14:19:28.025Z,18.14
2022-10-20T14:21:57.373Z,18.33
2022-10-20T14:24:31.124Z,18.17
2022-10-20T14:27:00.441Z,17.79
2022-10-20T14:29:33.225Z,17.82
2022-10-20T14:32:01.268Z,18.00
2022-10-20T14:34:31.622Z,18.18
2022-10-20T14:36:59.558Z,18.21
2022-10-20T14:39:35.247Z,18.63
2022-10-20T14:42:04.597Z,18.83
2022-10-20T14:44:33.574Z,19.14
2022-10-20T14:47:05.309Z,19.33
2022-10-20T14:49:38.044Z,18.79
2022-10-20T14:52:21.197Z,18.75
2022-10-20T14:54:50.871Z,19.13
2022-10-20T14:57:41.842Z,19.49
2022-10-20T15:00:29.271Z,19.54
2022-10-20T15:02:58.603Z,19.53
2022-10-20T15:05:36.024Z,19.51
2022-10-20T15:08:24.837Z,19.30
2022-10-20T15:10:52.568Z,19.17
2022-10-20T15:13:27.855Z,19.18
2022-10-20T15:15:58.134Z,19.19
2022-10-20T15:18:26.426Z,18.99
2022-10-20T15:20:54.430Z,18.54
2022-10-20T15:23:23.823Z,18.33
2022-10-20T15:25:54.063Z,18.35
2022-10-20T15:28:32.663Z,18.50
2022-10-20T15:31:03.301Z,18.39
2022-10-20T15:33:30.788Z,18.45
2022-10-20T15:36:00.485Z,18.34
2022-10-20T15:38:28.119Z,18.03
2022-10-20T15:40:55.667Z,17.93
2022-10-20T15:43:23.257Z,17.57
2022-10-20T15:45:55.078Z,17.31
2022-10-20T15:48:25.943Z,17.06
2022-10-20T15:50:54.160Z,16.92
2022-10-20T15:53:21.730Z,16.73
2022-10-20T15:55:49.276Z,16.89
2022-10-20T15:58:16.859Z,16.91
2022-10-20T16:00:44.416Z,16.96
2022-10-20T16:03:17.258Z,16.99
2022-10-20T16:05:47.282Z,16.86
2022-10-20T16:10:47.287Z,16.33
2022-10-20T16:13:15.737Z,16.27
2022-10-20T16:15:43.243Z,16.09
2022-10-20T16:18:11.761Z,15.83
2022-10-20T16:20:39.324Z,15.71
2022-10-20T16:23:08.192Z,15.89
2022-10-20T16:25:35.722Z,15.49
2022-10-20T16:28:03.249Z,15.50
2022-10-20T16:30:30.758Z,15.65
2022-10-20T16:32:58.338Z,14.94
2022-10-20T16:35:25.987Z,14.52
2022-10-20T16:37:53.487Z,14.41
2022-10-20T16:40:22.414Z,14.25
2022-10-20T16:42:50.000Z,14.63
2022-10-20T16:45:17.745Z,15.30
2022-10-20T16:47:45.276Z,15.43
2022-10-20T16:50:13.170Z,14.33
2022-10-20T16:52:40.672Z,14.65
2022-10-20T16:55:09.062Z,14.70
2022-10-20T16:57:39.755Z,14.56
2022-10-20T17:00:09.697Z,13.96
2022-10-20T17:02:37.703Z,13.72
2022-10-20T17:05:08.373Z,13.47
2022-10-20T17:07:37.565Z,13.33
2022-10-20T17:10:06.015Z,13.30
2022-10-20T17:12:33.521Z,13.15
2022-10-20T17:15:02.538Z,13.20
2022-10-20T17:17:30.074Z,13.88
2022-10-20T17:19:57.576Z,14.38
2022-10-20T17:22:25.092Z,15.01
2022-10-20T17:24:52.619Z,14.99
2022-10-20T17:27:20.125Z,14.08
2022-10-20T17:29:48.375Z,14.09
2022-10-20T17:32:18.273Z,14.06
2022-10-20T17:34:46.005Z,14.15
2022-10-20T17:37:13.528Z,14.34
2022-10-20T17:39:41.031Z,13.92
2022-10-20T17:42:08.537Z,14.38
2022-10-20T17:44:36.084Z,14.83
2022-10-20T17:47:04.347Z,15.19
2022-10-20T17:49:33.230Z,14.90
2022-10-20T17:52:00.837Z,15.20
2022-10-20T17:54:28.339Z,15.37
2022-10-20T17:56:55.853Z,15.17
2022-10-20T17:59:23.398Z,14.41
2022-10-20T18:01:50.933Z,14.05
2022-10-20T18:04:18.799Z,14.37
2022-10-20T18:06:47.892Z,14.54
2022-10-20T18:09:17.388Z,14.82
2022-10-20T18:11:46.773Z,15.14
2022-10-20T18:14:14.413Z,15.25
2022-10-20T18:16:42.311Z,15.29
2022-10-20T18:19:14.625Z,15.01
2022-10-20T18:21:42.191Z,15.18
2022-10-20T18:24:13.369Z,15.19
2022-10-20T18:26:41.133Z,15.13
2022-10-20T18:29:10.636Z,15.08
2022-10-20T18:31:40.095Z,14.98
2022-10-20T18:34:10.282Z,14.94
2022-10-20T18:36:41.892Z,14.90
2022-10-20T18:39:15.552Z,14.79
2022-10-20T18:41:45.431Z,14.68
2022-10-20T18:44:15.684Z,14.77
2022-10-20T18:46:43.543Z,14.81
2022-10-20T18:49:14.331Z,14.78
2022-10-20T18:51:42.448Z,14.31
2022-10-20T18:54:10.384Z,13.56
2022-10-20T18:56:39.261Z,13.83
2022-10-20T18:59:08.936Z,13.64
2022-10-20T19:01:38.724Z,13.96
2022-10-20T19:04:07.536Z,14.27
2022-10-20T19:06:37.242Z,14.42
2022-10-20T19:09:06.722Z,14.37
2022-10-20T19:11:36.114Z,14.37
2022-10-20T19:14:05.652Z,14.38
2022-10-20T19:16:35.193Z,14.35
2022-10-20T19:19:05.425Z,14.51
2022-10-20T19:21:33.639Z,14.39
2022-10-20T19:24:03.631Z,14.23
2022-10-20T19:26:32.573Z,14.20
2022-10-20T19:29:02.335Z,14.29
2022-10-20T19:31:34.115Z,14.00
2022-10-20T19:34:03.889Z,14.20
2022-10-20T19:36:31.430Z,14.30
2022-10-20T19:38:58.933Z,14.49
2022-10-20T19:41:26.784Z,14.51
2022-10-20T19:43:54.674Z,14.05
2022-10-20T19:46:23.472Z,13.37
2022-10-20T19:48:52.391Z,13.72
2022-10-20T19:51:21.263Z,14.05
2022-10-20T19:53:50.973Z,13.97
2022-10-20T19:56:19.011Z,14.18
2022-10-20T19:58:48.304Z,14.30
2022-10-20T20:01:16.806Z,14.37
2022-10-20T20:03:44.746Z,14.42
2022-10-20T20:06:16.510Z,14.47
2022-10-20T20:08:45.464Z,14.47
2022-10-20T20:11:22.744Z,14.59
2022-10-20T20:13:50.976Z,14.62
2022-10-20T20:16:18.533Z,14.72
2022-10-20T20:18:46.049Z,14.53
2022-10-20T20:21:15.063Z,14.60
2022-10-20T20:23:59.497Z,14.65
2022-10-20T20:26:28.602Z,14.71
2022-10-20T20:28:56.873Z,14.63
2022-10-20T20:31:25.053Z,14.52
2022-10-20T20:33:53.565Z,14.62
2022-10-20T20:36:22.578Z,14.39
2022-10-20T20:38:52.585Z,13.48
2022-10-20T20:41:24.190Z,13.73
2022-10-20T20:43:51.711Z,13.96
2022-10-20T20:46:22.286Z,14.09
2022-10-20T20:48:49.862Z,13.75
2022-10-20T20:51:17.613Z,13.37
2022-10-20T20:53:46.472Z,12.36
2022-10-20T20:56:21.706Z,12.66
2022-10-20T20:58:54.942Z,13.66
2022-10-20T21:01:24.824Z,14.07
2022-10-20T21:03:53.833Z,14.23
2022-10-20T21:06:25.679Z,14.47
2022-10-20T21:09:02.570Z,14.70
2022-10-20T21:11:30.311Z,13.96
2022-10-20T21:13:59.718Z,13.68
2022-10-20T21:16:29.423Z,14.16
2022-10-20T21:18:58.877Z,14.27
2022-10-20T21:21:28.596Z,14.17
2022-10-20T21:23:57.717Z,14.34
2022-10-20T21:26:27.285Z,14.62
2022-10-20T21:28:55.623Z,14.53
2022-10-20T21:31:24.955Z,14.17
2022-10-20T21:33:53.588Z,13.70
2022-10-20T21:36:22.321Z,13.22
2022-10-20T21:38:50.135Z,13.45
2022-10-20T21:41:19.916Z,13.69
2022-10-20T21:43:51.191Z,13.80
2022-10-20T21:46:20.543Z,13.35
2022-10-20T21:48:50.080Z,13.50
2022-10-20T21:51:20.269Z,13.37
2022-10-20T21:53:48.400Z,13.93
2022-10-20T21:56:16.761Z,14.41
2022-10-20T21:58:44.305Z,14.63
2022-10-20T22:01:15.289Z,14.79
2022-10-20T22:03:43.733Z,14.74
2022-10-20T22:06:12.398Z,14.76
2022-10-20T22:08:42.990Z,14.82
2022-10-20T22:11:12.808Z,14.74
2022-10-20T22:13:40.556Z,14.75
2022-10-20T22:16:10.407Z,14.78
2022-10-20T22:18:39.300Z,14.78
2022-10-20T22:21:11.187Z,14.67
2022-10-20T22:23:41.406Z,14.43
2022-10-20T22:26:10.182Z,14.55
2022-10-20T22:28:38.223Z,14.57
2022-10-20T22:31:06.143Z,14.60
2022-10-20T22:33:33.865Z,14.61
2022-10-20T22:36:03.067Z,14.41
2022-10-20T22:38:30.590Z,14.40
2022-10-20T22:40:59.456Z,14.53
2022-10-20T22:43:27.395Z,14.49
2022-10-20T22:45:54.996Z,14.48
2022-10-20T22:48:22.666Z,14.55
2022-10-20T22:50:50.641Z,14.40
2022-10-20T22:53:19.597Z,14.47
2022-10-20T22:55:47.522Z,14.43
2022-10-20T22:58:15.068Z,14.46
2022-10-20T23:00:43.626Z,14.50
2022-10-20T23:03:11.547Z,14.49
2022-10-20T23:05:39.088Z,14.05
2022-10-20T23:08:06.929Z,14.14
2022-10-20T23:10:35.807Z,14.25
2022-10-20T23:13:03.343Z,14.24
2022-10-20T23:15:30.897Z,14.30
2022-10-20T23:17:58.416Z,13.93
2022-10-20T23:20:25.953Z,13.82
2022-10-20T23:22:53.474Z,13.77
2022-10-20T23:25:21.041Z,13.70
2022-10-20T23:27:49.953Z,13.45
2022-10-20T23:30:17.589Z,13.70
2022-10-20T23:32:45.115Z,13.88
2022-10-20T23:35:12.603Z,13.80
2022-10-20T23:37:40.342Z,13.86
2022-10-20T23:40:09.155Z,13.26
2022-10-20T23:42:36.667Z,13.17
2022-10-20T23:45:06.425Z,12.67
2022-10-20T23:47:33.972Z,12.83
2022-10-20T23:50:01.519Z,13.32
2022-10-20T23:52:29.111Z,12.87
2022-10-20T23:54:56.648Z,12.71
2022-10-20T23:57:24.227Z,12.29
2022-10-20T23:59:51.732Z,12.53
